aviador You're here:

KQBF Decoded Metar

in
Report Time2017-09-23 17:56:00
UTC Time2017-09-23 18:20:50
Flight Rules vfr VFR
WindCalm
Visibility9999 m
Phenomena:N/A
Clouds:N/A
Expected CloudBase > 3,600 ft AGL from Temp-Dew spread
CeilingNone
Temp29°C
Dew Point20°C (58% RH)
Heat Index30.7°C
QNH1014 hPa
Raw Report
METAR KQBF 231756Z AUTO 00000KT 9999 CLR 29/20 A2995 RMK AO2 LTG DSNT
W SLPNO WND DATA ESTMD T02900196 10306 20279 55000=

Extra information for KQBF:More info

Social comments